KR-0452 weather

Tusong Bando Heliport
Busan, Busan Gwang'yeogsi, South Korea

Public forecast

Using degrees Celsius for public forecast. Weather courtesy of forecast.io.

Closest aviation weather report (METAR) to Tusong Bando Heliport

Closest report is Gimhae International Airport, 8.5 nm (15.8 km) NNW. Retrieved 2020/01/28 06:00 UTC (43 minutes ago):

RKPK 280600Z 01013KT 9999 BKN050 BKN200 11/03 Q1015 RMK CIG050 SLP151 8/508 9/501

Closest aviation forecast (TAF) to Tusong Bando Heliport

Closest forecast is Gimhae International Airport, 8.5 nm (15.8 km) NNW. Retrieved 2020/01/28 06:00 UTC (43 minutes ago):

TAF RKPK 280500Z 2806/2912 03010KT 9999 BKN030 TN04/2821Z TX09/2906Z BECMG 2902/2903 03006KT SCT030